Time;durP1;ratioP1;P1;durP2;ratioP2;P2;SDS_P1;SDS_P2;PMS_P1;PMS_P2;Temp;Humidity;BMP_temperature;BMP_pressure;BME280_temperature;BME280_humidity;BME280_pressure;Samples;Min_cycle;Max_cycle;Signal;HPM_P1;HPM_P2
2022/05/16 00:01:53;;;;;;;6.93;4.40;;;;;;;;;;10360998;28;20033;-75
2022/05/16 00:06:56;;;;;;;7.28;4.15;;;;;;;;;;10350062;28;20225;-75
2022/05/16 00:12:00;;;;;;;10.20;4.35;;;;;;;;;;10364828;28;20057;-76
2022/05/16 00:17:03;;;;;;;9.02;4.68;;;;;;;;;;10347109;28;20294;-72
2022/05/16 00:22:06;;;;;;;7.40;4.10;;;;;;;;;;10351476;28;20586;-75
2022/05/16 00:27:11;;;;;;;8.07;4.07;;;;;;;;;;10355562;28;20362;-76
2022/05/16 00:32:15;;;;;;;7.32;3.97;;;;;;;;;;10367410;28;20069;-73
2022/05/16 00:37:18;;;;;;;7.03;4.13;;;;;;;;;;10366078;28;20038;-76
2022/05/16 00:42:22;;;;;;;8.17;4.20;;;;;;;;;;10356450;28;20081;-74
2022/05/16 00:47:25;;;;;;;7.95;4.15;;;;;;;;;;10340268;28;20058;-76
2022/05/16 00:52:29;;;;;;;8.18;4.43;;;;;;;;;;10337139;28;20046;-75
2022/05/16 00:57:37;;;;;;;7.93;4.40;;;;;;;;;;10360641;28;20038;-74
2022/05/16 01:08:04;;;;;;;8.65;4.50;;;;;;;;;;10360437;28;20057;-77
2022/05/16 01:13:09;;;;;;;10.20;4.53;;;;;;;;;;10364201;28;20072;-75
2022/05/16 01:18:15;;;;;;;11.32;5.10;;;;;;;;;;10349584;28;20395;-76
2022/05/16 01:23:21;;;;;;;11.05;4.75;;;;;;;;;;10363364;28;20461;-76
2022/05/16 01:28:25;;;;;;;8.75;4.65;;;;;;;;;;10361771;28;20044;-76
2022/05/16 01:33:31;;;;;;;10.80;4.85;;;;;;;;;;10365045;28;20070;-75
2022/05/16 01:38:36;;;;;;;8.87;4.67;;;;;;;;;;10345044;28;20034;-78
2022/05/16 01:43:43;;;;;;;8.82;4.95;;;;;;;;;;10346457;28;20582;-75
2022/05/16 01:48:45;;;;;;;7.32;4.78;;;;;;;;;;10359142;28;20462;-76
2022/05/16 01:53:49;;;;;;;10.02;5.13;;;;;;;;;;10354294;28;20474;-76
2022/05/16 01:58:52;;;;;;;11.48;5.60;;;;;;;;;;10358266;28;20050;-75
2022/05/16 02:03:55;;;;;;;12.05;5.32;;;;;;;;;;10367411;28;20066;-75
2022/05/16 02:08:59;;;;;;;10.30;5.40;;;;;;;;;;10339003;28;20046;-75
2022/05/16 02:14:03;;;;;;;7.70;4.47;;;;;;;;;;10358023;28;20046;-76
2022/05/16 02:19:05;;;;;;;7.82;4.88;;;;;;;;;;10341773;28;20502;-77
2022/05/16 02:29:30;;;;;;;9.57;5.53;;;;;;;;;;10363877;28;20064;-75
2022/05/16 02:34:33;;;;;;;8.52;5.10;;;;;;;;;;10361177;28;20045;-75
2022/05/16 02:39:38;;;;;;;9.60;5.15;;;;;;;;;;10357080;28;20069;-78
2022/05/16 02:44:41;;;;;;;8.75;5.28;;;;;;;;;;10352236;28;20140;-76
2022/05/16 02:49:45;;;;;;;8.88;4.85;;;;;;;;;;10360380;28;20471;-77
2022/05/16 02:54:51;;;;;;;10.57;4.60;;;;;;;;;;10336560;28;20066;-76
2022/05/16 02:59:54;;;;;;;8.85;5.40;;;;;;;;;;10337936;28;20328;-76
2022/05/16 03:04:57;;;;;;;8.50;5.10;;;;;;;;;;10337044;28;20038;-76
2022/05/16 03:10:02;;;;;;;8.93;4.70;;;;;;;;;;10344554;28;20120;-75
2022/05/16 03:15:05;;;;;;;9.38;5.10;;;;;;;;;;10358395;28;20044;-77
2022/05/16 03:20:08;;;;;;;8.85;5.03;;;;;;;;;;10362623;28;20115;-76
2022/05/16 03:25:13;;;;;;;9.73;4.72;;;;;;;;;;10364561;28;20043;-77
2022/05/16 03:30:16;;;;;;;8.27;4.72;;;;;;;;;;10340066;28;20082;-75
2022/05/16 03:35:19;;;;;;;9.57;4.78;;;;;;;;;;10338415;28;20040;-76
2022/05/16 03:45:56;;;;;;;8.67;4.67;;;;;;;;;;10279933;28;20133;-76
2022/05/16 03:50:59;;;;;;;8.50;4.60;;;;;;;;;;10363163;28;20041;-76
2022/05/16 03:56:03;;;;;;;6.07;4.00;;;;;;;;;;10361915;28;20049;-75
2022/05/16 04:01:06;;;;;;;10.90;5.07;;;;;;;;;;10349647;28;20072;-75
2022/05/16 04:06:09;;;;;;;9.93;4.30;;;;;;;;;;10345524;28;20041;-75
2022/05/16 04:11:14;;;;;;;6.53;4.00;;;;;;;;;;10358074;28;20502;-76
2022/05/16 04:16:19;;;;;;;10.98;4.82;;;;;;;;;;10355654;28;20073;-75
2022/05/16 04:21:24;;;;;;;7.72;4.40;;;;;;;;;;10364932;28;20037;-77
2022/05/16 04:26:28;;;;;;;6.57;4.17;;;;;;;;;;10353513;28;20346;-74
2022/05/16 04:31:36;;;;;;;8.48;3.75;;;;;;;;;;10339195;28;20092;-76
2022/05/16 04:36:40;;;;;;;8.00;4.50;;;;;;;;;;10343903;28;20396;-76
2022/05/16 04:47:05;;;;;;;7.60;4.10;;;;;;;;;;10366182;28;20077;-76
2022/05/16 04:52:11;;;;;;;7.70;3.97;;;;;;;;;;10366476;28;20050;-75
2022/05/16 04:57:15;;;;;;;8.30;4.30;;;;;;;;;;10368138;28;20065;-75
2022/05/16 05:02:18;;;;;;;8.43;4.00;;;;;;;;;;10344457;28;20050;-75
2022/05/16 05:07:22;;;;;;;7.03;4.32;;;;;;;;;;10366920;28;20482;-76
2022/05/16 05:17:48;;;;;;;6.10;4.43;;;;;;;;;;10344009;28;20490;-74
2022/05/16 05:22:50;;;;;;;7.43;4.30;;;;;;;;;;10359251;28;20057;-77
2022/05/16 05:27:54;;;;;;;8.27;4.43;;;;;;;;;;10358836;28;20046;-77
2022/05/16 05:32:58;;;;;;;6.93;4.50;;;;;;;;;;10360563;28;20042;-75
2022/05/16 05:38:00;;;;;;;9.23;4.50;;;;;;;;;;10363779;28;20152;-76
2022/05/16 05:43:06;;;;;;;10.80;5.60;;;;;;;;;;10364960;28;20300;-74
2022/05/16 05:48:09;;;;;;;8.68;4.80;;;;;;;;;;10313591;28;20363;-72
2022/05/16 05:53:13;;;;;;;8.32;4.90;;;;;;;;;;10336520;28;20779;-73
2022/05/16 05:58:17;;;;;;;9.27;4.90;;;;;;;;;;10345909;28;20156;-74
2022/05/16 06:03:20;;;;;;;9.45;5.03;;;;;;;;;;10342088;28;20156;-75
2022/05/16 06:08:23;;;;;;;7.90;4.95;;;;;;;;;;10363721;28;20396;-74
2022/05/16 06:13:28;;;;;;;7.30;4.47;;;;;;;;;;10337220;28;20049;-76
2022/05/16 06:18:31;;;;;;;6.80;4.47;;;;;;;;;;10363076;28;20049;-75
2022/05/16 06:23:34;;;;;;;9.20;4.65;;;;;;;;;;10359270;28;20045;-76
2022/05/16 06:28:39;;;;;;;9.00;4.85;;;;;;;;;;10358140;28;20111;-74
2022/05/16 06:33:46;;;;;;;6.75;4.13;;;;;;;;;;10359660;28;20156;-75
2022/05/16 06:38:49;;;;;;;9.13;5.00;;;;;;;;;;10340672;28;20567;-73
2022/05/16 06:43:53;;;;;;;11.18;4.93;;;;;;;;;;10359060;28;20045;-74
2022/05/16 06:48:56;;;;;;;8.60;4.50;;;;;;;;;;10330682;28;20061;-76
2022/05/16 06:53:59;;;;;;;9.30;4.45;;;;;;;;;;10337606;28;20478;-77
2022/05/16 06:59:03;;;;;;;6.80;4.00;;;;;;;;;;10361234;28;20022;-76
2022/05/16 07:04:06;;;;;;;8.00;3.97;;;;;;;;;;10342574;28;20128;-76
2022/05/16 07:09:08;;;;;;;6.50;4.10;;;;;;;;;;10367350;28;20042;-75
2022/05/16 07:14:13;;;;;;;6.03;3.70;;;;;;;;;;10352767;28;20369;-75
2022/05/16 07:19:15;;;;;;;6.10;3.78;;;;;;;;;;10359167;28;20038;-76
2022/05/16 07:24:18;;;;;;;5.88;3.60;;;;;;;;;;10353208;28;20185;-76
2022/05/16 07:29:23;;;;;;;6.88;3.75;;;;;;;;;;10365608;28;20517;-76
2022/05/16 07:34:26;;;;;;;6.57;3.67;;;;;;;;;;10345228;28;20061;-74
2022/05/16 07:39:28;;;;;;;7.05;3.47;;;;;;;;;;10339820;28;20161;-74
2022/05/16 07:44:33;;;;;;;5.82;3.08;;;;;;;;;;10357944;28;20037;-73
2022/05/16 07:49:35;;;;;;;6.97;3.20;;;;;;;;;;10340192;28;20129;-75
2022/05/16 07:54:38;;;;;;;5.25;2.50;;;;;;;;;;10355850;28;20033;-74
2022/05/16 07:59:43;;;;;;;8.13;3.17;;;;;;;;;;10350257;28;20469;-75
2022/05/16 08:04:45;;;;;;;4.80;2.95;;;;;;;;;;10367505;28;20041;-76
2022/05/16 08:15:11;;;;;;;5.72;3.08;;;;;;;;;;10338161;28;20414;-73
2022/05/16 08:20:14;;;;;;;3.97;2.10;;;;;;;;;;10359908;28;20038;-74
2022/05/16 08:25:16;;;;;;;3.38;2.00;;;;;;;;;;10342212;28;20128;-74
2022/05/16 08:30:21;;;;;;;2.97;2.00;;;;;;;;;;10340840;28;20042;-75
2022/05/16 08:35:24;;;;;;;2.60;1.70;;;;;;;;;;10336650;28;20049;-75
2022/05/16 08:40:35;;;;;;;4.53;2.35;;;;;;;;;;10335813;28;20121;-74
2022/05/16 08:45:47;;;;;;;4.57;2.13;;;;;;;;;;10354928;28;20069;-73
2022/05/16 08:50:52;;;;;;;9.45;2.45;;;;;;;;;;10332714;28;20423;-75
2022/05/16 08:55:56;;;;;;;2.47;1.88;;;;;;;;;;10337332;28;20554;-75
2022/05/16 09:01:03;;;;;;;4.15;2.30;;;;;;;;;;10340133;28;20096;-75
2022/05/16 09:06:12;;;;;;;2.30;1.52;;;;;;;;;;10336295;28;20498;-77
2022/05/16 09:11:16;;;;;;;4.72;1.80;;;;;;;;;;10351722;28;20147;-75
2022/05/16 09:16:34;;;;;;;4.30;1.92;;;;;;;;;;10331020;28;20137;-76
2022/05/16 09:21:43;;;;;;;4.75;1.90;;;;;;;;;;10337594;28;20076;-77
2022/05/16 09:26:50;;;;;;;2.67;1.83;;;;;;;;;;10355469;28;20065;-77
2022/05/16 09:31:57;;;;;;;3.67;1.90;;;;;;;;;;10361463;28;20096;-78
2022/05/16 09:37:04;;;;;;;3.40;1.60;;;;;;;;;;10358190;28;20037;-75
2022/05/16 09:42:13;;;;;;;5.22;1.52;;;;;;;;;;10363110;28;20045;-77
2022/05/16 09:47:21;;;;;;;4.25;1.88;;;;;;;;;;10347225;28;20061;-77
2022/05/16 09:52:24;;;;;;;3.28;2.00;;;;;;;;;;10353964;28;20037;-77
2022/05/16 09:57:27;;;;;;;;;;;;;;;;;;10340825;28;20177;-77
2022/05/16 10:02:32;;;;;;;2.50;1.65;;;;;;;;;;10362882;28;20008;-78
2022/05/16 10:07:42;;;;;;;2.92;1.45;;;;;;;;;;10366453;28;20054;-75
2022/05/16 10:12:45;;;;;;;2.67;1.27;;;;;;;;;;10369898;28;20159;-77
2022/05/16 10:17:52;;;;;;;4.53;2.25;;;;;;;;;;10375293;28;20069;-77
2022/05/16 10:22:58;;;;;;;2.53;1.48;;;;;;;;;;10348945;28;20534;-75
2022/05/16 10:28:09;;;;;;;2.70;1.70;;;;;;;;;;10345256;28;20116;-76
2022/05/16 10:33:25;;;;;;;2.78;0.95;;;;;;;;;;10350274;28;20033;-75
2022/05/16 10:38:33;;;;;;;2.65;1.40;;;;;;;;;;10339030;28;20065;-77
2022/05/16 10:43:42;;;;;;;2.05;1.42;;;;;;;;;;10357480;28;20434;-78
2022/05/16 10:48:49;;;;;;;2.40;1.63;;;;;;;;;;10352484;28;20134;-77
2022/05/16 10:53:57;;;;;;;4.38;1.80;;;;;;;;;;10357770;28;20156;-77
2022/05/16 10:59:03;;;;;;;5.57;2.38;;;;;;;;;;10340431;28;20057;-76
2022/05/16 11:04:17;;;;;;;3.33;1.80;;;;;;;;;;10357916;28;20092;-78
2022/05/16 11:09:25;;;;;;;3.55;1.80;;;;;;;;;;10338917;28;20096;-76
2022/05/16 11:14:33;;;;;;;2.40;1.20;;;;;;;;;;10348701;28;20450;-77
2022/05/16 11:19:41;;;;;;;2.95;1.48;;;;;;;;;;10333579;28;20580;-75
2022/05/16 11:24:47;;;;;;;2.65;1.42;;;;;;;;;;10340318;28;20092;-77
2022/05/16 11:29:53;;;;;;;3.83;2.38;;;;;;;;;;10339271;28;20693;-78
2022/05/16 11:35:02;;;;;;;3.28;2.00;;;;;;;;;;10367829;28;20330;-76
2022/05/16 11:40:07;;;;;;;2.25;1.10;;;;;;;;;;10335612;28;20064;-76
2022/05/16 11:45:18;;;;;;;2.45;1.67;;;;;;;;;;10330661;28;20065;-78
2022/05/16 11:50:25;;;;;;;3.28;2.20;;;;;;;;;;10356422;28;20034;-77
2022/05/16 12:01:07;;;;;;;2.45;1.63;;;;;;;;;;10355214;28;20076;-79
2022/05/16 12:06:22;;;;;;;3.55;1.90;;;;;;;;;;10354692;28;20053;-75
2022/05/16 12:11:28;;;;;;;4.57;1.92;;;;;;;;;;10334116;28;20049;-75
2022/05/16 12:16:32;;;;;;;2.95;1.50;;;;;;;;;;10347596;28;20073;-76
2022/05/16 12:21:37;;;;;;;2.35;1.63;;;;;;;;;;10365442;28;20120;-77
2022/05/16 12:26:58;;;;;;;2.05;1.95;;;;;;;;;;10362661;28;20214;-77
2022/05/16 12:32:04;;;;;;;2.92;1.90;;;;;;;;;;10353343;28;20044;-77
2022/05/16 12:37:10;;;;;;;3.83;1.67;;;;;;;;;;10345120;28;20065;-77
2022/05/16 12:42:24;;;;;;;3.42;2.10;;;;;;;;;;10367367;28;20104;-76
2022/05/16 12:47:48;;;;;;;3.00;2.00;;;;;;;;;;10338710;28;20157;-75
2022/05/16 12:53:15;;;;;;;3.13;1.90;;;;;;;;;;10358201;28;20046;-78
2022/05/16 12:58:20;;;;;;;2.42;1.70;;;;;;;;;;10369172;28;20502;-80
2022/05/16 13:03:38;;;;;;;2.80;1.80;;;;;;;;;;10370528;28;20042;-76
2022/05/16 13:08:46;;;;;;;3.58;1.80;;;;;;;;;;10336797;28;20042;-78
2022/05/16 13:13:57;;;;;;;3.50;1.63;;;;;;;;;;10345399;28;20378;-78
2022/05/16 13:19:01;;;;;;;5.07;1.70;;;;;;;;;;10365179;28;20030;-76
2022/05/16 13:24:14;;;;;;;4.68;2.10;;;;;;;;;;10348660;28;20042;-76
2022/05/16 13:29:22;;;;;;;3.25;2.17;;;;;;;;;;10355918;28;20034;-77
2022/05/16 13:34:30;;;;;;;4.40;1.80;;;;;;;;;;10345920;28;20180;-79
2022/05/16 13:39:36;;;;;;;5.93;1.88;;;;;;;;;;10370553;28;20040;-74
2022/05/16 13:44:41;;;;;;;4.15;2.00;;;;;;;;;;10359022;28;20065;-77
2022/05/16 13:49:44;;;;;;;4.15;2.05;;;;;;;;;;10364476;28;20056;-78
2022/05/16 13:54:49;;;;;;;2.30;1.67;;;;;;;;;;10365370;28;20057;-76
2022/05/16 14:00:07;;;;;;;4.72;2.00;;;;;;;;;;10354118;28;20038;-78
2022/05/16 14:05:11;;;;;;;4.70;2.00;;;;;;;;;;10366454;28;20065;-78
2022/05/16 14:10:16;;;;;;;4.88;2.10;;;;;;;;;;10369043;28;20060;-80
2022/05/16 14:15:21;;;;;;;4.40;2.10;;;;;;;;;;10361685;28;20038;-77
2022/05/16 14:20:24;;;;;;;4.72;2.20;;;;;;;;;;10344406;28;20538;-78
2022/05/16 14:25:29;;;;;;;4.13;2.30;;;;;;;;;;10370516;28;20042;-77
2022/05/16 14:30:34;;;;;;;5.43;2.30;;;;;;;;;;10365696;28;20041;-76
2022/05/16 14:35:38;;;;;;;4.15;2.05;;;;;;;;;;10334928;28;20073;-76
2022/05/16 14:40:44;;;;;;;6.88;2.25;;;;;;;;;;10351782;28;20038;-77
2022/05/16 14:51:15;;;;;;;3.47;2.38;;;;;;;;;;10358775;28;20038;-76
2022/05/16 14:56:19;;;;;;;5.97;2.17;;;;;;;;;;10336528;28;20223;-78
2022/05/16 15:06:43;;;;;;;9.40;2.58;;;;;;;;;;10362269;28;20038;-78
2022/05/16 15:11:49;;;;;;;11.68;2.55;;;;;;;;;;10351288;28;20387;-79
2022/05/16 15:16:53;;;;;;;9.70;2.50;;;;;;;;;;10365467;28;20518;-77
2022/05/16 15:21:58;;;;;;;11.55;2.80;;;;;;;;;;10362655;28;20033;-78
2022/05/16 15:27:04;;;;;;;11.27;3.03;;;;;;;;;;10363465;28;20511;-78
2022/05/16 15:32:08;;;;;;;9.85;3.05;;;;;;;;;;10363918;28;20045;-79
2022/05/16 15:37:17;;;;;;;8.80;3.13;;;;;;;;;;10339118;28;20056;-75
2022/05/16 15:42:24;;;;;;;8.23;3.30;;;;;;;;;;10359072;28;20096;-76
2022/05/16 15:47:28;;;;;;;8.88;3.17;;;;;;;;;;10360866;28;20037;-77
2022/05/16 15:52:31;;;;;;;14.18;4.10;;;;;;;;;;10365296;28;20446;-76
2022/05/16 15:57:35;;;;;;;12.27;3.80;;;;;;;;;;10361320;28;20045;-78
2022/05/16 16:02:41;;;;;;;8.25;3.85;;;;;;;;;;10345615;28;20042;-77
2022/05/16 16:13:05;;;;;;;6.05;2.65;;;;;;;;;;10357023;28;20049;-76
2022/05/16 16:18:08;;;;;;;7.35;2.85;;;;;;;;;;10357627;28;20042;-76
2022/05/16 16:23:12;;;;;;;4.90;2.17;;;;;;;;;;10358142;28;20034;-78
2022/05/16 16:28:16;;;;;;;8.85;3.03;;;;;;;;;;10344102;28;20038;-78
2022/05/16 16:33:21;;;;;;;9.43;4.10;;;;;;;;;;10335506;28;20435;-74
2022/05/16 16:38:24;;;;;;;7.53;2.92;;;;;;;;;;10355426;28;20065;-76
2022/05/16 16:43:28;;;;;;;;;;;;;;;;;;10351952;28;20051;-77
2022/05/16 16:48:31;;;;;;;;;;;;;;;;;;10361900;28;20051;-77
2022/05/16 16:58:56;;;;;;;5.82;2.75;;;;;;;;;;10347095;28;20053;-79
2022/05/16 17:03:59;;;;;;;7.70;2.78;;;;;;;;;;10372074;28;20040;-77
2022/05/16 17:09:04;;;;;;;5.20;2.45;;;;;;;;;;10356962;28;20050;-80
2022/05/16 17:14:06;;;;;;;6.85;2.85;;;;;;;;;;10353347;28;20502;-79
2022/05/16 17:19:10;;;;;;;6.88;3.20;;;;;;;;;;10347472;28;20485;-76
2022/05/16 17:24:14;;;;;;;8.15;4.07;;;;;;;;;;10353331;28;20104;-78
2022/05/16 17:29:17;;;;;;;6.88;3.05;;;;;;;;;;10335636;28;20069;-79
2022/05/16 17:34:21;;;;;;;4.43;2.70;;;;;;;;;;10337155;28;20034;-78
2022/05/16 17:39:25;;;;;;;8.13;3.60;;;;;;;;;;10357183;28;20060;-78
2022/05/16 17:44:28;;;;;;;5.60;2.70;;;;;;;;;;10369783;28;20039;-78
2022/05/16 17:49:32;;;;;;;5.95;3.00;;;;;;;;;;10373155;28;20567;-76
2022/05/16 17:54:41;;;;;;;5.90;3.00;;;;;;;;;;10374279;28;20060;-77
2022/05/16 17:59:43;;;;;;;6.45;2.80;;;;;;;;;;10360916;28;20058;-76
2022/05/16 18:04:46;;;;;;;8.85;2.83;;;;;;;;;;10345321;28;20088;-75
2022/05/16 18:09:52;;;;;;;7.65;2.88;;;;;;;;;;10367946;28;20092;-74
2022/05/16 18:14:54;;;;;;;4.68;2.25;;;;;;;;;;10345489;28;20038;-75
2022/05/16 18:19:57;;;;;;;5.82;2.75;;;;;;;;;;10352222;28;20057;-77
2022/05/16 18:25:02;;;;;;;4.95;3.00;;;;;;;;;;10336974;28;20038;-76
2022/05/16 18:30:05;;;;;;;6.13;3.10;;;;;;;;;;10362923;28;20077;-74
2022/05/16 18:35:10;;;;;;;3.15;2.03;;;;;;;;;;10369568;28;20033;-76
2022/05/16 18:40:16;;;;;;;12.45;4.45;;;;;;;;;;10349701;28;20541;-76
2022/05/16 18:50:46;;;;;;;5.25;2.60;;;;;;;;;;10349075;28;20090;-75
2022/05/16 18:55:51;;;;;;;7.35;3.20;;;;;;;;;;10355184;28;20189;-74
2022/05/16 19:00:55;;;;;;;3.38;1.85;;;;;;;;;;10342017;28;20751;-72
2022/05/16 19:05:58;;;;;;;;;;;;;;;;;;10356594;28;20046;-74
2022/05/16 19:11:04;;;;;;;5.07;2.25;;;;;;;;;;10359208;28;20361;-77
2022/05/16 19:16:24;;;;;;;5.47;2.53;;;;;;;;;;10356750;28;20049;-76
2022/05/16 19:21:29;;;;;;;4.13;2.40;;;;;;;;;;10356988;28;20064;-74
2022/05/16 19:26:35;;;;;;;4.53;2.60;;;;;;;;;;10357501;28;20226;-74
2022/05/16 19:37:00;;;;;;;2.22;1.30;;;;;;;;;;10357651;28;20037;-78
2022/05/16 19:42:02;;;;;;;;;;;;;;;;;;10357162;28;20043;-77
2022/05/16 19:47:07;;;;;;;2.65;1.65;;;;;;;;;;10340416;28;19927;-74
2022/05/16 19:52:11;;;;;;;6.15;2.33;;;;;;;;;;10341447;28;20046;-75
2022/05/16 19:57:14;;;;;;;3.97;1.70;;;;;;;;;;10337897;28;20041;-77
2022/05/16 20:02:20;;;;;;;2.50;1.48;;;;;;;;;;10358801;28;20409;-73
2022/05/16 20:07:22;;;;;;;2.42;1.30;;;;;;;;;;10360064;28;20030;-76
2022/05/16 20:12:28;;;;;;;1.95;1.38;;;;;;;;;;10344310;28;20196;-73
2022/05/16 20:17:33;;;;;;;4.38;1.70;;;;;;;;;;10360494;28;20318;-76
2022/05/16 20:27:59;;;;;;;2.20;1.08;;;;;;;;;;10360024;28;20033;-75
2022/05/16 20:33:03;;;;;;;2.05;1.25;;;;;;;;;;10358802;28;20097;-76
2022/05/16 20:38:06;;;;;;;1.63;0.93;;;;;;;;;;10355675;28;20058;-77
2022/05/16 20:43:09;;;;;;;5.33;1.60;;;;;;;;;;10342036;28;20132;-75
2022/05/16 20:48:14;;;;;;;3.17;1.65;;;;;;;;;;10359177;28;20066;-76
2022/05/16 20:53:18;;;;;;;1.40;0.88;;;;;;;;;;10354664;28;20117;-76
2022/05/16 20:58:21;;;;;;;;;;;;;;;;;;10357499;28;20050;-74
2022/05/16 21:03:25;;;;;;;3.83;1.50;;;;;;;;;;10363805;28;19921;-74
2022/05/16 21:08:29;;;;;;;2.92;1.33;;;;;;;;;;10343687;28;20350;-75
2022/05/16 21:13:51;;;;;;;2.97;1.42;;;;;;;;;;10359705;28;20337;-74
2022/05/16 21:18:55;;;;;;;1.77;1.23;;;;;;;;;;10343857;28;20137;-76
2022/05/16 21:23:59;;;;;;;9.70;1.40;;;;;;;;;;10364911;28;20121;-74
2022/05/16 21:29:03;;;;;;;2.20;0.77;;;;;;;;;;10363944;28;20393;-75
2022/05/16 21:34:08;;;;;;;3.03;1.50;;;;;;;;;;10342907;28;20161;-75
2022/05/16 21:39:10;;;;;;;1.30;1.15;;;;;;;;;;10344144;28;20069;-75
2022/05/16 21:49:34;;;;;;;4.22;1.40;;;;;;;;;;10362252;28;20038;-75
2022/05/16 21:54:38;;;;;;;3.28;1.38;;;;;;;;;;10364066;28;20129;-75
2022/05/16 21:59:41;;;;;;;;;;;;;;;;;;10362262;28;20235;-75
2022/05/16 22:04:45;;;;;;;4.07;1.38;;;;;;;;;;10347382;28;19978;-73
2022/05/16 22:09:49;;;;;;;4.60;1.40;;;;;;;;;;10350258;28;20041;-76
2022/05/16 22:14:52;;;;;;;2.05;1.20;;;;;;;;;;10367224;28;20045;-74
2022/05/16 22:19:56;;;;;;;2.58;1.20;;;;;;;;;;10344308;28;20062;-76
2022/05/16 22:24:59;;;;;;;4.28;1.80;;;;;;;;;;10360943;28;20029;-75
2022/05/16 22:30:03;;;;;;;4.90;1.45;;;;;;;;;;10368673;28;20396;-76
2022/05/16 22:35:08;;;;;;;6.80;1.87;;;;;;;;;;10343267;28;20033;-77
2022/05/16 22:40:12;;;;;;;3.42;1.20;;;;;;;;;;10368175;28;20299;-76
2022/05/16 22:45:18;;;;;;;3.88;1.80;;;;;;;;;;10339374;28;20064;-75
2022/05/16 22:50:25;;;;;;;4.20;1.80;;;;;;;;;;10362308;28;20042;-74
2022/05/16 22:55:28;;;;;;;8.20;1.95;;;;;;;;;;10341481;28;20117;-76
2022/05/16 23:00:32;;;;;;;5.30;1.80;;;;;;;;;;10362869;28;20416;-74
2022/05/16 23:05:36;;;;;;;3.37;1.80;;;;;;;;;;10343382;28;20070;-75
2022/05/16 23:10:39;;;;;;;5.78;1.60;;;;;;;;;;10340281;28;20150;-76
2022/05/16 23:15:42;;;;;;;2.93;1.23;;;;;;;;;;10362905;28;20499;-76
2022/05/16 23:20:47;;;;;;;5.85;2.13;;;;;;;;;;10341631;28;20073;-74
2022/05/16 23:25:49;;;;;;;7.85;2.30;;;;;;;;;;10347576;28;20061;-76
2022/05/16 23:30:52;;;;;;;6.70;2.65;;;;;;;;;;10365034;28;20060;-77
2022/05/16 23:36:15;;;;;;;3.67;1.38;;;;;;;;;;10343864;28;20041;-75
2022/05/16 23:41:18;;;;;;;4.72;2.13;;;;;;;;;;10346107;28;20061;-77
2022/05/16 23:46:22;;;;;;;5.85;2.35;;;;;;;;;;10362152;28;20034;-75
2022/05/16 23:51:27;;;;;;;4.88;2.08;;;;;;;;;;10360938;28;20099;-75
2022/05/16 23:56:30;;;;;;;5.65;2.10;;;;;;;;;;10343352;28;20037;-74
